Currently 54°F in San Bernardino, California, USA
54°F
55°F / 50°F
calm
0.00"
Monday, February 20, 2017 9:48 AM PST

San Bernardino, California Weather Summary
Last 36 Hours

Temperature Winds Hourly Humidity Dewpoint
Time Report Norm Report Norm Max Gusts Precip. Rpt. Norm Rpt. Norm Pressure
1Mon 09:48 AM  54.5°F  60°F  calm  1 mph  3 mph  0.00"  83%  50%  49°F  41°F  N/A
2Mon 09:46 AM  54.8°F  60°F  calm  2 mph  3 mph  ----  83%  50%  50°F  41°F  N/A
Mon 09:00 AM  52.8°F  57°F  calm  1 mph  3 mph  0.00"  88%  55%  49°F  41°F  N/A
Mon 08:00 AM  51.2°F  53°F  calm  1 mph  none  0.00"  93%  64%  49°F  40°F  N/A
Mon 07:00 AM  50.9°F  49°F  calm  1 mph  none  0.00"  96%  70%  50°F  39°F  N/A
Mon 06:00 AM  50.8°F  49°F  calm  1 mph  none  0.00"  96%  71%  50°F  40°F  N/A
Mon 05:00 AM  50.4°F  50°F  calm  1 mph  none  0.00"  96%  70%  49°F  40°F  N/A
Mon 04:00 AM  50.4°F  50°F  calm  1 mph  none  0.00"  96%  70%  49°F  40°F  N/A
Mon 03:00 AM  50.4°F  51°F  calm  1 mph  none  0.00"  96%  70%  49°F  41°F  N/A
Mon 02:00 AM  50.8°F  51°F  calm  calm  3 mph  0.00"  96%  69%  50°F  41°F  N/A
Mon 01:00 AM  50.0°F  52°F  calm  calm  none  0.00"  96%  67%  49°F  41°F  N/A
3Mon 12:04 AM  49.5°F  53°F  calm  1 mph  none  ----  96%  66%  48°F  42°F  N/A
Mon 12:00 AM  50.1°F  53°F  calm  1 mph  none  0.01"  96%  65%  49°F  42°F  N/A
Sun 11:00 PM  50.6°F  55°F  calm  1 mph  2 mph  0.03"  96%  63%  49°F  42°F  N/A
Sun 10:00 PM  50.8°F  56°F  calm  1 mph  3 mph  0.00"  96%  60%  50°F  42°F  N/A
Sun 09:00 PM  51.0°F  58°F  1 mph SE  1 mph  5 mph  0.02"  96%  57%  50°F  42°F  N/A
Sun 08:00 PM  51.5°F  60°F  3 mph SE  1 mph  5 mph  0.03"  95%  54%  50°F  42°F  N/A
Sun 07:00 PM  53.0°F  62°F  calm  2 mph  2 mph  0.01"  94%  49%  51°F  42°F  N/A
Sun 06:00 PM  52.7°F  64°F  calm  3 mph  4 mph  0.03"  92%  43%  50°F  41°F  N/A
Sun 05:00 PM  54.2°F  67°F  1 mph S  4 mph  12 mph  0.02"  86%  37%  50°F  39°F  N/A
Sun 04:00 PM  56.6°F  69°F  4 mph SE  4 mph  10 mph  0.00"  80%  33%  50°F  38°F  N/A
Sun 03:00 PM  57.0°F  70°F  calm  3 mph  5 mph  0.00"  77%  32%  50°F  38°F  N/A
Sun 02:00 PM  57.7°F  70°F  calm  4 mph  5 mph  0.00"  78%  32%  51°F  37°F  N/A
Sun 01:00 PM  56.0°F  69°F  calm  3 mph  4 mph  0.00"  83%  34%  51°F  38°F  N/A
Sun 12:00 PM  55.1°F  67°F  calm  3 mph  5 mph  0.00"  88%  37%  51°F  39°F  N/A
Sun 11:00 AM  53.4°F  65°F  calm  2 mph  none  0.00"  95%  41%  52°F  40°F  N/A
Sun 10:00 AM  52.3°F  62°F  calm  1 mph  none  0.00"  96%  47%  51°F  41°F  N/A
Sun 09:00 AM  51.8°F  57°F  calm  1 mph  none  0.01"  96%  55%  51°F  41°F  N/A
Sun 08:00 AM  52.0°F  53°F  calm  1 mph  none  0.03"  95%  63%  51°F  40°F  N/A
Sun 07:00 AM  51.7°F  49°F  calm  1 mph  none  0.01"  94%  70%  50°F  39°F  N/A
Sun 06:00 AM  52.2°F  49°F  calm  1 mph  none  0.00"  92%  71%  50°F  40°F  N/A
Sun 05:00 AM  52.6°F  50°F  calm  1 mph  none  0.00"  91%  70%  50°F  40°F  N/A
Sun 04:00 AM  52.6°F  50°F  calm  1 mph  none  0.00"  91%  69%  50°F  40°F  N/A
Sun 03:00 AM  52.4°F  51°F  calm  1 mph  none  0.00"  92%  69%  50°F  40°F  N/A
Sun 02:00 AM  52.4°F  52°F  calm  calm  none  0.00"  91%  68%  50°F  41°F  N/A
Sun 01:00 AM  52.5°F  53°F  calm  calm  none  0.00"  92%  66%  50°F  41°F  N/A
Sun 12:00 AM  52.9°F  54°F  calm  1 mph  none  0.00"  91%  64%  50°F  41°F  N/A
Sat 11:00 PM  53.0°F  55°F  calm  1 mph  9 mph  0.00"  91%  62%  50°F  42°F  N/A
Sat 10:00 PM  53.6°F  57°F  calm  1 mph  10 mph  0.00"  91%  59%  51°F  42°F  N/A

  1. Current weather data. No green row appears if the current weather data is also the high or low for the current day.
  2. High temperature for the current day.
  3. Low temperature for the current day.

The San Bernardino, California weather pages are a service of WeatherCurrents.
Copyright ©Mon Feb 20 09:49:24 PST 2017  WeatherCurrents. All rights reserved. - Submit questions and comments - Privacy Policy

This page automatically refreshes every 10 minutes.